Time;durP1;ratioP1;P1;durP2;ratioP2;P2;SDS_P1;SDS_P2;PMS_P1;PMS_P2;Temp;Humidity;BMP_temperature;BMP_pressure;BME280_temperature;BME280_humidity;BME280_pressure;Samples;Min_cycle;Max_cycle;Signal;HPM_P1;HPM_P2
2022/03/08 00:01:43;;;;;;;7.60;6.97;;;0.90;99.90;;;;;;5017118;28;20224;-80
2022/03/08 00:04:09;;;;;;;9.50;7.27;;;1.40;99.90;;;;;;5007659;28;20442;-80
2022/03/08 00:06:35;;;;;;;7.07;6.37;;;1.00;99.90;;;;;;5011653;28;20181;-79
2022/03/08 00:09:00;;;;;;;6.77;6.10;;;2.20;99.90;;;;;;5021289;28;20197;-78
2022/03/08 00:11:26;;;;;;;8.17;7.37;;;1.30;99.90;;;;;;5007732;28;20235;-78
2022/03/08 00:13:52;;;;;;;13.50;6.90;;;1.40;99.90;;;;;;5022920;28;20227;-79
2022/03/08 00:16:19;;;;;;;7.50;6.90;;;1.60;99.90;;;;;;5009026;28;20190;-78
2022/03/08 00:18:44;;;;;;;7.47;6.63;;;1.50;99.90;;;;;;5025779;28;20432;-79
2022/03/08 00:21:11;;;;;;;7.77;7.07;;;1.70;99.90;;;;;;5017689;28;20258;-79
2022/03/08 00:23:37;;;;;;;7.80;7.10;;;1.60;99.90;;;;;;5010402;28;20254;-80
2022/03/08 00:26:03;;;;;;;7.50;7.00;;;1.50;99.90;;;;;;5007024;28;20745;-78
2022/03/08 00:28:29;;;;;;;8.05;7.35;;;1.50;99.90;;;;;;5019892;28;20737;-78
2022/03/08 00:30:56;;;;;;;9.13;8.30;;;1.50;99.90;;;;;;4995708;28;20175;-77
2022/03/08 00:33:22;;;;;;;8.93;7.00;;;1.70;99.90;;;;;;4999616;28;20486;-78
2022/03/08 00:35:48;;;;;;;6.40;5.80;;;1.60;99.90;;;;;;5008440;28;20177;-78
2022/03/08 00:38:15;;;;;;;9.77;7.40;;;1.80;99.90;;;;;;5011748;28;20592;-80
2022/03/08 00:40:41;;;;;;;8.07;7.28;;;1.80;99.90;;;;;;5017304;28;20446;-78
2022/03/08 00:43:06;;;;;;;8.77;7.80;;;1.50;99.90;;;;;;5013740;28;20228;-79
2022/03/08 00:45:32;;;;;;;8.20;6.37;;;1.90;99.90;;;;;;4990344;28;20206;-79
2022/03/08 00:47:58;;;;;;;7.50;6.93;;;1.60;99.90;;;;;;5000369;28;20195;-78
2022/03/08 00:50:26;;;;;;;7.80;7.20;;;1.60;99.90;;;;;;5008724;28;20414;-79
2022/03/08 00:52:54;;;;;;;8.63;7.03;;;1.30;99.90;;;;;;5011119;28;20333;-79
2022/03/08 00:55:21;;;;;;;6.88;6.07;;;1.50;99.90;;;;;;4989360;28;20892;-79
2022/03/08 00:57:47;;;;;;;7.60;6.90;;;1.30;99.90;;;;;;5027036;28;20184;-79
2022/03/08 01:00:16;;;;;;;7.80;7.05;;;1.40;99.90;;;;;;5006442;28;20247;-79
2022/03/08 01:02:41;;;;;;;6.82;6.30;;;1.40;99.90;;;;;;5027550;28;20180;-78
2022/03/08 01:05:08;;;;;;;8.43;7.60;;;1.40;99.90;;;;;;4997286;28;20201;-78
2022/03/08 01:07:34;;;;;;;6.13;5.55;;;1.20;99.90;;;;;;5005991;28;20935;-78
2022/03/08 01:10:00;;;;;;;6.97;6.37;;;1.30;99.90;;;;;;5008076;28;20193;-78
2022/03/08 01:12:26;;;;;;;7.07;6.57;;;1.30;99.90;;;;;;5008128;28;20203;-78
2022/03/08 01:14:52;;;;;;;7.32;6.82;;;1.30;99.90;;;;;;5009589;28;20223;-78
2022/03/08 01:17:17;;;;;;;10.40;9.48;;;1.20;99.90;;;;;;5014418;28;20193;-77
2022/03/08 01:19:43;;;;;;;8.00;7.30;;;1.20;99.90;;;;;;5005516;28;20197;-77
2022/03/08 01:22:11;;;;;;;7.03;6.33;;;1.20;99.90;;;;;;5011509;28;20667;-80
2022/03/08 01:24:36;;;;;;;6.60;6.00;;;1.10;99.90;;;;;;5012037;28;20679;-78
2022/03/08 01:27:03;;;;;;;8.03;6.30;;;1.30;99.90;;;;;;5018680;28;20191;-78
2022/03/08 01:29:28;;;;;;;9.93;6.68;;;1.30;99.90;;;;;;5009137;28;20236;-78
2022/03/08 01:31:54;;;;;;;9.13;6.93;;;1.30;99.90;;;;;;5015867;28;20199;-78
2022/03/08 01:34:19;;;;;;;10.77;6.97;;;1.40;99.90;;;;;;5011105;28;20216;-78
2022/03/08 01:36:45;;;;;;;10.10;7.67;;;1.30;99.90;;;;;;5013047;28;20208;-78
2022/03/08 01:39:11;;;;;;;6.50;6.00;;;1.30;99.90;;;;;;5015410;28;20227;-79
2022/03/08 01:41:36;;;;;;;7.60;7.00;;;1.20;99.90;;;;;;5009856;28;20251;-79
2022/03/08 01:44:02;;;;;;;9.00;7.30;;;1.20;99.90;;;;;;5020801;28;20201;-79
2022/03/08 01:46:28;;;;;;;8.10;7.28;;;1.30;99.90;;;;;;5007439;28;20224;-78
2022/03/08 01:48:54;;;;;;;9.33;7.13;;;1.20;99.90;;;;;;5014282;28;20585;-78
2022/03/08 01:51:21;;;;;;;6.93;6.43;;;1.00;99.90;;;;;;4989203;28;20383;-77
2022/03/08 01:53:47;;;;;;;7.20;6.60;;;0.90;99.90;;;;;;5020868;28;20692;-78
2022/03/08 01:56:12;;;;;;;7.27;6.63;;;0.70;99.90;;;;;;5006524;28;20168;-78
2022/03/08 01:58:39;;;;;;;10.77;7.03;;;0.90;99.90;;;;;;5022295;28;20447;-79
2022/03/08 02:01:06;;;;;;;7.30;6.70;;;0.80;99.90;;;;;;4992955;28;20176;-80
2022/03/08 02:03:32;;;;;;;7.78;7.22;;;0.80;99.90;;;;;;5016951;28;20211;-81
2022/03/08 02:05:58;;;;;;;8.30;7.50;;;0.70;99.90;;;;;;5007470;28;20205;-80
2022/03/08 02:08:25;;;;;;;7.00;6.50;;;0.60;99.90;;;;;;4992413;28;20223;-80
2022/03/08 02:10:52;;;;;;;8.35;6.95;;;0.80;99.90;;;;;;5006766;28;20168;-79
2022/03/08 02:13:18;;;;;;;8.93;7.65;;;0.70;99.90;;;;;;5008230;28;20271;-79
2022/03/08 02:15:49;;;;;;;11.07;8.23;;;0.70;99.90;;;;;;5009724;28;20534;-79
2022/03/08 02:18:15;;;;;;;7.88;7.13;;;0.50;99.90;;;;;;4991856;28;20181;-78
2022/03/08 02:20:41;;;;;;;9.32;8.55;;;0.50;99.90;;;;;;5013294;28;20197;-79
2022/03/08 02:23:06;;;;;;;8.43;7.67;;;0.60;99.90;;;;;;5014717;28;20238;-79
2022/03/08 02:25:32;;;;;;;7.50;6.77;;;0.60;99.90;;;;;;5014821;28;20268;-78
2022/03/08 02:27:58;;;;;;;7.87;7.07;;;1.10;99.90;;;;;;5018579;28;20185;-79
2022/03/08 02:30:26;;;;;;;8.50;7.53;;;0.50;99.90;;;;;;5009219;28;20384;-79
2022/03/08 02:32:54;;;;;;;7.47;6.78;;;0.60;99.90;;;;;;5007939;28;20271;-80
2022/03/08 02:35:26;;;;;;;9.55;7.65;;;0.50;99.90;;;;;;5004922;28;20454;-80
2022/03/08 02:38:00;;;;;;;9.45;8.50;;;0.30;99.90;;;;;;4996782;28;20181;-80
2022/03/08 02:40:28;;;;;;;8.52;7.72;;;0.30;99.90;;;;;;5004527;28;20193;-79
2022/03/08 02:42:55;;;;;;;9.85;8.70;;;0.20;99.90;;;;;;5007180;28;20651;-80
2022/03/08 02:45:21;;;;;;;8.50;7.80;;;0.40;99.90;;;;;;5005007;28;20204;-79
2022/03/08 02:47:47;;;;;;;6.90;6.35;;;0.30;99.90;;;;;;5014672;28;20553;-78
2022/03/08 02:50:15;;;;;;;7.93;7.30;;;0.30;99.90;;;;;;5004677;28;20281;-79
2022/03/08 02:52:42;;;;;;;8.77;8.05;;;0.20;99.90;;;;;;5019313;28;20420;-81
2022/03/08 02:55:11;;;;;;;7.65;6.88;;;0.30;99.90;;;;;;5006415;28;20203;-78
2022/03/08 02:57:37;;;;;;;9.10;8.27;;;0.40;99.90;;;;;;5002082;28;20585;-80
2022/03/08 03:00:05;;;;;;;8.82;7.93;;;0.30;99.90;;;;;;5007235;28;20337;-80
2022/03/08 03:02:31;;;;;;;9.45;7.85;;;0.40;99.90;;;;;;5000812;28;20182;-80
2022/03/08 03:04:56;;;;;;;9.43;7.50;;;1.00;99.90;;;;;;4990195;28;20213;-79
2022/03/08 03:07:23;;;;;;;12.93;7.60;;;0.10;99.90;;;;;;4997525;28;20193;-80
2022/03/08 03:09:50;;;;;;;8.00;7.25;;;0.20;99.90;;;;;;5007760;28;20204;-79
2022/03/08 03:12:16;;;;;;;9.68;8.52;;;0.30;99.90;;;;;;4998279;28;20176;-80
2022/03/08 03:14:42;;;;;;;7.25;6.65;;;1.60;99.90;;;;;;5022497;28;20188;-80
2022/03/08 03:17:08;;;;;;;8.20;7.40;;;0.30;99.90;;;;;;5012680;28;20194;-80
2022/03/08 03:19:34;;;;;;;8.38;7.55;;;0.10;99.90;;;;;;5014639;28;20441;-79
2022/03/08 03:21:59;;;;;;;8.83;8.03;;;0.20;99.90;;;;;;5028982;28;20198;-80
2022/03/08 03:24:25;;;;;;;8.90;7.13;;;0.20;99.90;;;;;;5008099;28;20232;-80
2022/03/08 03:26:50;;;;;;;7.87;6.60;;;0.20;99.90;;;;;;5028661;28;20647;-79
2022/03/08 03:29:16;;;;;;;8.93;7.57;;;0.00;99.90;;;;;;5012478;28;20563;-79
2022/03/08 03:31:42;;;;;;;12.23;8.00;;;0.40;99.90;;;;;;5015908;28;20193;-79
2022/03/08 03:34:07;;;;;;;8.80;7.90;;;2.00;99.90;;;;;;5008886;28;20204;-79
2022/03/08 03:36:33;;;;;;;10.13;7.67;;;0.00;99.90;;;;;;5012625;28;20189;-80
2022/03/08 03:38:58;;;;;;;11.07;8.37;;;0.20;99.90;;;;;;5025808;28;20747;-79
2022/03/08 03:41:24;;;;;;;7.73;7.10;;;0.00;99.90;;;;;;5020174;28;20676;-80
2022/03/08 03:43:50;;;;;;;7.80;6.93;;;0.00;99.90;;;;;;5014984;28;20219;-79
2022/03/08 03:46:16;;;;;;;9.30;7.13;;;0.00;99.90;;;;;;4991389;28;20549;-79
2022/03/08 03:48:42;;;;;;;8.10;7.47;;;0.00;99.90;;;;;;5010085;28;20703;-80
2022/03/08 03:51:07;;;;;;;7.93;7.13;;;-0.40;99.90;;;;;;5008792;28;20184;-80
2022/03/08 03:53:33;;;;;;;8.37;7.37;;;0.00;99.90;;;;;;5022391;28;20203;-80
2022/03/08 03:55:59;;;;;;;11.80;8.03;;;-0.10;99.90;;;;;;5013476;28;20187;-80
2022/03/08 03:58:24;;;;;;;10.50;7.30;;;0.00;99.90;;;;;;5020343;28;20827;-79
2022/03/08 04:00:50;;;;;;;9.13;8.07;;;0.20;99.90;;;;;;4995182;28;20301;-79
2022/03/08 04:03:18;;;;;;;14.13;8.23;;;1.00;99.90;;;;;;5014746;28;20459;-80
2022/03/08 04:05:44;;;;;;;9.00;8.10;;;0.00;99.90;;;;;;5017895;28;20177;-80
2022/03/08 04:08:49;;;;;;;7.43;6.85;;;0.50;99.90;;;;;;5009098;28;20196;-79
2022/03/08 04:11:15;;;;;;;9.45;7.55;;;0.20;99.90;;;;;;4998346;28;20195;-80
2022/03/08 04:13:40;;;;;;;9.67;7.93;;;0.00;99.90;;;;;;5019944;28;20201;-79
2022/03/08 04:16:06;;;;;;;10.70;8.07;;;-0.20;99.90;;;;;;5009585;28;20200;-80
2022/03/08 04:18:32;;;;;;;8.10;7.40;;;-0.10;99.90;;;;;;5015105;28;20215;-79
2022/03/08 04:20:57;;;;;;;11.30;8.60;;;0.10;99.90;;;;;;5008116;28;20184;-80
2022/03/08 04:23:23;;;;;;;7.13;6.53;;;0.50;99.90;;;;;;5011821;28;21083;-80
2022/03/08 04:25:49;;;;;;;7.33;6.73;;;-0.20;99.90;;;;;;5026812;28;20666;-79
2022/03/08 04:28:14;;;;;;;7.80;7.20;;;1.50;99.90;;;;;;5017891;28;20292;-80
2022/03/08 04:30:40;;;;;;;9.17;8.30;;;-0.10;99.90;;;;;;5011269;28;20191;-80
2022/03/08 04:33:05;;;;;;;8.50;7.10;;;0.00;99.90;;;;;;5014029;28;20216;-80
2022/03/08 04:35:31;;;;;;;8.73;7.57;;;-0.30;99.90;;;;;;4992672;28;20250;-79
2022/03/08 04:38:03;;;;;;;10.23;9.23;;;-0.10;99.90;;;;;;4994510;28;20188;-80
2022/03/08 04:40:48;;;;;;;10.48;7.80;;;-0.30;99.90;;;;;;4999736;28;20675;-79
2022/03/08 04:43:14;;;;;;;9.60;7.50;;;-0.50;99.90;;;;;;4979598;28;20196;-79
2022/03/08 04:45:43;;;;;;;7.83;7.10;;;;;;;;;;5071003;23;20664;-85
2022/03/08 04:48:16;;;;;;;9.73;7.75;;;-0.30;99.90;;;;;;5019827;28;20204;-86
2022/03/08 04:50:42;;;;;;;12.68;8.70;;;0.10;99.90;;;;;;5012077;28;20190;-84
2022/03/08 04:53:08;;;;;;;9.87;8.87;;;;;;;;;;5033686;28;20181;-84
2022/03/08 04:55:33;;;;;;;8.60;7.75;;;-0.40;99.90;;;;;;5022068;28;20225;-86
2022/03/08 04:57:59;;;;;;;9.40;8.40;;;;;;;;;;5034232;28;20187;-85
2022/03/08 05:00:25;;;;;;;8.95;8.10;;;-0.50;99.90;;;;;;5009917;28;20195;-83
2022/03/08 05:02:51;;;;;;;11.23;9.33;;;;;;;;;;5012030;28;20270;-83
2022/03/08 05:05:20;;;;;;;9.52;8.63;;;-0.40;99.90;;;;;;5006953;28;20216;-81
2022/03/08 05:07:46;;;;;;;10.05;9.15;;;0.50;99.90;;;;;;5011142;28;20573;-84
2022/03/08 05:10:13;;;;;;;11.17;9.63;;;-0.50;99.90;;;;;;5010621;28;20190;-84
2022/03/08 05:12:41;;;;;;;9.05;7.70;;;-0.50;99.90;;;;;;5007372;28;20457;-83
2022/03/08 05:15:08;;;;;;;10.25;8.25;;;-0.50;99.90;;;;;;5015200;28;20552;-83
2022/03/08 05:17:33;;;;;;;11.05;9.20;;;-0.40;99.90;;;;;;5000402;28;20653;-83
2022/03/08 05:19:59;;;;;;;13.30;9.00;;;;;;;;;;5020426;28;20252;-84
2022/03/08 05:22:25;;;;;;;10.30;8.57;;;-0.40;99.90;;;;;;5007381;28;20446;-84
2022/03/08 05:24:51;;;;;;;10.43;8.80;;;;;;;;;;5005917;28;20550;-84
2022/03/08 05:27:17;;;;;;;9.13;8.23;;;-0.50;99.90;;;;;;4992880;28;20247;-83
2022/03/08 05:29:43;;;;;;;8.43;7.70;;;;;;;;;;5005328;28;20439;-83
2022/03/08 05:32:09;;;;;;;12.60;9.13;;;-0.50;99.90;;;;;;5008820;28;20729;-84
2022/03/08 05:34:35;;;;;;;11.30;9.30;;;-1.70;99.90;;;;;;5030138;28;20550;-83
2022/03/08 05:37:01;;;;;;;9.93;8.93;;;;;;;;;;5015336;28;20189;-84
2022/03/08 05:39:26;;;;;;;11.07;9.97;;;-0.50;99.90;;;;;;5016572;28;20484;-83
2022/03/08 05:41:53;;;;;;;11.30;9.40;;;;;;;;;;4997068;28;20829;-84
2022/03/08 05:44:18;;;;;;;11.63;9.65;;;-0.40;99.90;;;;;;5017588;28;20547;-84
2022/03/08 05:46:44;;;;;;;12.57;9.23;;;0.00;99.90;;;;;;5025325;28;20674;-84
2022/03/08 05:49:13;;;;;;;12.43;8.93;;;1.10;99.90;;;;;;5008456;28;20439;-85
2022/03/08 05:51:39;;;;;;;12.32;9.50;;;-1.30;99.90;;;;;;5017589;28;20201;-84
2022/03/08 05:54:05;;;;;;;11.73;9.90;;;-0.50;99.90;;;;;;5009681;28;20184;-85
2022/03/08 05:56:30;;;;;;;11.20;8.90;;;-0.40;99.90;;;;;;4996850;28;20673;-84
2022/03/08 05:58:56;;;;;;;13.40;9.23;;;-0.50;99.90;;;;;;5009253;28;20316;-86
2022/03/08 06:01:22;;;;;;;9.83;8.10;;;-0.60;99.90;;;;;;4998750;28;20604;-84
2022/03/08 06:03:47;;;;;;;10.63;8.40;;;-0.80;99.90;;;;;;5007687;28;20208;-84
2022/03/08 06:06:13;;;;;;;14.50;10.00;;;-0.30;99.90;;;;;;5015520;28;20694;-84
2022/03/08 06:08:39;;;;;;;11.17;8.80;;;-0.90;99.90;;;;;;5014751;28;20173;-85
2022/03/08 06:11:05;;;;;;;9.00;8.10;;;-0.70;99.90;;;;;;5011581;28;20190;-85
2022/03/08 06:13:31;;;;;;;12.20;9.80;;;-1.10;99.90;;;;;;5018738;28;20429;-84
2022/03/08 06:15:56;;;;;;;13.30;9.33;;;-0.50;99.90;;;;;;5007465;28;20227;-84
2022/03/08 06:18:22;;;;;;;12.90;9.80;;;-0.10;99.90;;;;;;4995375;28;20565;-84
2022/03/08 06:20:48;;;;;;;11.73;8.80;;;;;;;;;;5019271;28;20715;-84
2022/03/08 06:23:14;;;;;;;11.00;9.90;;;-0.40;99.90;;;;;;5024604;28;20201;-83
2022/03/08 06:25:40;;;;;;;13.60;10.70;;;0.80;99.90;;;;;;4989936;28;20208;-85
2022/03/08 06:28:08;;;;;;;10.43;9.53;;;1.00;99.90;;;;;;4997182;28;20203;-84
2022/03/08 06:30:34;;;;;;;11.32;9.20;;;0.60;99.90;;;;;;5007109;28;20185;-84
2022/03/08 06:33:19;;;;;;;12.10;8.83;;;0.20;99.90;;;;;;5024465;28;20305;-83
2022/03/08 06:35:45;;;;;;;8.77;7.35;;;-0.10;99.90;;;;;;4991768;28;20594;-83
2022/03/08 06:38:10;;;;;;;9.43;8.10;;;0.30;99.90;;;;;;5009029;28;20223;-83
2022/03/08 06:40:56;;;;;;;13.80;9.43;;;0.50;99.90;;;;;;5009391;28;20544;-86
2022/03/08 06:43:22;;;;;;;8.90;8.00;;;0.90;99.90;;;;;;4971705;28;20228;-80
2022/03/08 06:45:47;;;;;;;15.80;10.60;;;0.40;99.90;;;;;;4989511;28;20255;-80
2022/03/08 06:48:13;;;;;;;14.13;9.97;;;-0.10;99.90;;;;;;5021079;28;20428;-84
2022/03/08 06:50:39;;;;;;;14.07;8.47;;;1.80;99.90;;;;;;4993405;28;20235;-79
2022/03/08 06:53:05;;;;;;;8.70;7.80;;;-1.60;99.90;;;;;;5007047;28;20185;-86
2022/03/08 06:55:30;;;;;;;13.73;9.13;;;3.40;99.90;;;;;;5016082;28;20709;-83
2022/03/08 06:57:56;;;;;;;10.30;9.10;;;0.30;99.90;;;;;;5008770;28;20565;-86
2022/03/08 07:00:24;;;;;;;9.20;8.27;;;2.40;99.90;;;;;;5014644;28;20193;-85
2022/03/08 07:02:50;;;;;;;15.65;8.93;;;1.50;99.90;;;;;;5024362;28;20208;-84
2022/03/08 07:05:16;;;;;;;9.23;8.33;;;2.80;99.90;;;;;;5016922;28;20216;-83
2022/03/08 07:07:55;;;;;;;8.80;8.10;;;4.70;99.90;;;;;;5028252;28;20180;-85
2022/03/08 07:10:21;;;;;;;8.65;7.95;;;5.40;99.90;;;;;;5016117;28;20248;-84
2022/03/08 07:12:50;;;;;;;8.63;7.93;;;6.00;99.90;;;;;;5030532;28;20262;-82
2022/03/08 07:15:33;;;;;;;8.90;8.20;;;5.20;99.90;;;;;;5016339;28;20463;-85
2022/03/08 07:18:05;;;;;;;10.67;9.77;;;6.50;99.90;;;;;;4995523;28;20431;-85
2022/03/08 07:20:31;;;;;;;8.90;8.10;;;5.50;99.90;;;;;;4992246;28;20443;-83
2022/03/08 07:23:03;;;;;;;8.40;7.70;;;7.10;99.90;;;;;;5018226;28;20785;-86
2022/03/08 07:25:29;;;;;;;9.13;8.33;;;7.80;99.50;;;;;;5012754;28;20355;-84
2022/03/08 07:27:55;;;;;;;9.03;8.33;;;8.90;99.00;;;;;;5025790;28;20427;-83
2022/03/08 07:30:23;;;;;;;8.87;8.07;;;9.40;92.60;;;;;;5020687;28;20426;-85
2022/03/08 07:32:51;;;;;;;9.23;8.43;;;9.60;93.60;;;;;;5011562;28;20252;-85
2022/03/08 07:35:22;;;;;;;9.45;8.80;;;9.30;90.00;;;;;;4311314;28;10000568;-83
2022/03/08 07:38:00;;;;;;;9.07;8.37;;;11.00;84.70;;;;;;5007746;28;20226;-86
2022/03/08 07:40:29;;;;;;;8.80;7.90;;;10.50;72.20;;;;;;4994189;28;20901;-85
2022/03/08 07:42:58;;;;;;;8.53;7.93;;;12.80;60.90;;;;;;5014958;28;20867;-83
2022/03/08 07:45:24;;;;;;;8.97;8.20;;;12.30;55.30;;;;;;5007045;28;20491;-86
2022/03/08 07:48:35;;;;;;;9.77;9.07;;;13.20;54.40;;;;;;5009933;28;20486;-85
2022/03/08 07:50:49;;;;;;;11.00;10.00;;;11.90;49.60;;;;;;4997353;28;20309;-85
2022/03/08 07:53:18;;;;;;;10.70;9.80;;;13.40;48.30;;;;;;5000006;28;20435;-83
2022/03/08 07:55:44;;;;;;;10.60;9.60;;;13.90;46.90;;;;;;5019532;28;20864;-85
2022/03/08 07:58:19;;;;;;;9.77;9.03;;;14.90;42.30;;;;;;4995181;28;20689;-85
2022/03/08 08:00:45;;;;;;;9.60;8.93;;;15.00;44.30;;;;;;5011210;28;20176;-83
2022/03/08 08:03:14;;;;;;;12.60;10.20;;;15.10;42.90;;;;;;4996213;28;20987;-86
2022/03/08 08:05:42;;;;;;;8.93;8.43;;;15.60;41.20;;;;;;5011196;28;20877;-85
2022/03/08 08:08:10;;;;;;;9.43;8.70;;;16.90;41.60;;;;;;5013841;28;20420;-85
2022/03/08 08:10:36;;;;;;;9.00;8.50;;;14.50;40.00;;;;;;4994570;28;20419;-85
2022/03/08 08:13:10;;;;;;;10.63;9.60;;;16.50;40.60;;;;;;5026067;28;20463;-90
2022/03/08 08:15:37;;;;;;;8.00;7.60;;;15.10;37.10;;;;;;5020753;28;20837;-85
2022/03/08 08:18:03;;;;;;;8.37;7.67;;;15.90;38.30;;;;;;5013099;28;20454;-85
2022/03/08 08:20:29;;;;;;;8.37;7.70;;;15.20;36.00;;;;;;5000699;28;20431;-85
2022/03/08 08:22:54;;;;;;;7.97;7.50;;;14.90;35.20;;;;;;4991198;28;20849;-84
2022/03/08 08:25:20;;;;;;;7.40;6.90;;;15.00;35.30;;;;;;4997378;28;20216;-80
2022/03/08 08:27:49;;;;;;;7.10;6.50;;;13.80;34.60;;;;;;4997788;28;20555;-84
2022/03/08 08:30:15;;;;;;;8.07;7.53;;;14.00;34.70;;;;;;4993999;28;20181;-85
2022/03/08 08:32:46;;;;;;;6.87;6.47;;;14.90;34.90;;;;;;5014879;28;20433;-86
2022/03/08 08:35:14;;;;;;;7.70;7.27;;;15.00;34.60;;;;;;5010997;28;20603;-86
2022/03/08 08:37:59;;;;;;;7.87;7.37;;;15.70;33.20;;;;;;5004056;28;20945;-86
2022/03/08 08:40:25;;;;;;;7.33;7.03;;;16.10;32.50;;;;;;5010237;28;20435;-82
2022/03/08 08:42:51;;;;;;;7.53;7.13;;;16.10;32.10;;;;;;4993325;28;20443;-86
2022/03/08 08:45:17;;;;;;;7.23;6.83;;;17.20;33.80;;;;;;5016045;28;20246;-86
2022/03/08 08:47:45;;;;;;;8.67;6.53;;;15.60;31.20;;;;;;5028303;28;20243;-86
2022/03/08 08:50:11;;;;;;;6.53;6.23;;;14.60;31.60;;;;;;4998270;28;20765;-87
2022/03/08 08:53:04;;;;;;;7.20;6.77;;;15.00;32.30;;;;;;5012604;28;20451;-87
2022/03/08 08:55:30;;;;;;;6.90;6.60;;;15.50;33.00;;;;;;4666578;28;10001100;-86
2022/03/08 08:58:00;;;;;;;6.97;6.57;;;15.10;32.40;;;;;;4991769;28;20470;-83
2022/03/08 09:00:26;;;;;;;6.40;6.20;;;15.10;31.00;;;;;;5001906;28;20215;-87
2022/03/08 09:02:52;;;;;;;6.80;6.50;;;15.00;31.90;;;;;;4990685;28;20439;-86
2022/03/08 09:05:18;;;;;;;5.87;5.57;;;15.40;32.00;;;;;;5016265;28;20547;-86
2022/03/08 09:07:49;;;;;;;7.07;6.67;;;14.60;30.40;;;;;;5023479;28;20294;-87
2022/03/08 09:10:16;;;;;;;6.57;6.30;;;15.20;32.20;;;;;;5026576;28;20184;-87
2022/03/08 09:12:48;;;;;;;6.53;6.03;;;15.10;31.20;;;;;;4988792;28;20438;-86
2022/03/08 09:15:14;;;;;;;7.13;6.70;;;15.20;30.50;;;;;;5010949;28;20473;-84
2022/03/08 09:17:40;;;;;;;5.90;5.60;;;16.00;33.20;;;;;;5021506;28;20836;-82
2022/03/08 09:20:09;;;;;;;6.97;6.67;;;14.90;30.60;;;;;;5015161;28;20181;-84
2022/03/08 09:22:38;;;;;;;6.70;6.10;;;15.20;29.90;;;;;;5003934;28;20318;-87
2022/03/08 09:25:08;;;;;;;6.60;6.30;;;16.00;30.00;;;;;;4993491;28;20544;-84
2022/03/08 09:27:34;;;;;;;7.23;6.80;;;15.70;29.90;;;;;;5001523;28;20572;-85
2022/03/08 09:30:04;;;;;;;6.73;6.23;;;14.90;29.50;;;;;;5010525;28;20427;-85
2022/03/08 09:32:30;;;;;;;5.93;5.50;;;14.40;29.30;;;;;;5004741;28;20455;-82
2022/03/08 09:34:55;;;;;;;5.77;5.37;;;15.80;30.60;;;;;;4990579;28;20890;-83
2022/03/08 09:37:21;;;;;;;6.07;5.67;;;16.00;30.00;;;;;;5019896;28;20326;-85
2022/03/08 09:39:47;;;;;;;6.20;5.80;;;17.00;30.30;;;;;;5013351;28;20219;-85
2022/03/08 09:42:13;;;;;;;6.30;5.90;;;14.50;29.10;;;;;;5015567;28;20195;-84
2022/03/08 09:44:38;;;;;;;6.30;6.00;;;15.10;29.60;;;;;;5014630;28;20551;-84
2022/03/08 09:47:05;;;;;;;6.13;5.73;;;15.60;29.60;;;;;;4994362;28;20194;-84
2022/03/08 09:49:37;;;;;;;6.20;5.90;;;15.80;29.50;;;;;;5013504;28;20180;-81
2022/03/08 09:52:06;;;;;;;6.43;6.17;;;16.40;29.80;;;;;;5025634;28;20427;-84
2022/03/08 09:54:32;;;;;;;6.20;6.00;;;16.90;30.30;;;;;;5005731;28;20423;-83
2022/03/08 09:56:57;;;;;;;6.17;5.77;;;17.60;30.40;;;;;;5017179;28;20435;-83
2022/03/08 09:59:29;;;;;;;6.77;6.47;;;17.60;27.90;;;;;;5006660;28;20590;-84
2022/03/08 10:01:55;;;;;;;6.57;6.20;;;16.10;27.80;;;;;;5007413;28;20207;-82
2022/03/08 10:04:21;;;;;;;6.20;5.80;;;15.70;28.30;;;;;;4987948;28;20511;-83
2022/03/08 10:06:51;;;;;;;5.80;5.57;;;15.10;28.70;;;;;;5008960;28;20195;-85
2022/03/08 10:09:22;;;;;;;7.63;6.27;;;14.60;28.30;;;;;;5008125;28;20203;-85
2022/03/08 10:11:56;;;;;;;6.13;5.93;;;13.50;28.00;;;;;;4653959;28;10001353;-86
2022/03/08 10:14:55;;;;;;;6.40;6.20;;;14.70;28.80;;;;;;4983505;28;20428;-87
2022/03/08 10:18:28;;;;;;;6.87;6.40;;;15.40;29.30;;;;;;4978729;28;20542;-85
2022/03/08 10:21:52;;;;;;;6.30;6.00;;;16.00;28.30;;;;;;5003415;28;20428;-86
2022/03/08 10:24:46;;;;;;;6.33;5.83;;;15.70;28.00;;;;;;4992759;28;20483;-84
2022/03/08 10:27:22;;;;;;;7.53;6.73;;;15.20;28.40;;;;;;5022150;28;20434;-86
2022/03/08 10:30:05;;;;;;;6.40;6.10;;;16.00;28.80;;;;;;4987412;28;20435;-89
2022/03/08 10:32:51;;;;;;;5.70;5.50;;;16.60;28.80;;;;;;4986050;28;20817;-84
2022/03/08 10:35:38;;;;;;;;;;;;;;;;;;;;;
2022/03/08 10:38:08;;;;;;;6.50;6.10;;;16.90;27.90;;;;;;5006509;28;20434;-86
2022/03/08 10:41:01;;;;;;;6.57;6.17;;;16.70;28.70;;;;;;5011132;28;20513;-85
2022/03/08 10:43:29;;;;;;;8.17;7.47;;;17.90;29.10;;;;;;5006804;28;20425;-89
2022/03/08 10:46:22;;;;;;;6.83;6.43;;;16.60;28.50;;;;;;5005542;28;20562;-88
2022/03/08 10:52:52;;;;;;;6.53;6.20;;;16.00;27.90;;;;;;4977062;28;20433;-86
2022/03/08 10:55:32;;;;;;;6.97;6.30;;;16.60;28.60;;;;;;5010581;28;20432;-82
2022/03/08 10:58:12;;;;;;;6.70;6.30;;;18.50;29.40;;;;;;4989719;28;20465;-80
2022/03/08 11:00:39;;;;;;;6.60;6.23;;;17.50;28.10;;;;;;5044461;23;20911;-80
2022/03/08 11:03:08;;;;;;;6.57;6.07;;;16.50;27.40;;;;;;4984859;28;20432;-80
2022/03/08 11:05:36;;;;;;;7.40;6.90;;;17.10;27.80;;;;;;4984416;28;20483;-80
2022/03/08 11:08:03;;;;;;;7.40;7.00;;;17.30;27.30;;;;;;4638583;28;9999716;-79
2022/03/08 11:10:30;;;;;;;6.57;6.20;;;15.10;27.90;;;;;;4983041;28;20276;-78
2022/03/08 11:12:57;;;;;;;7.03;6.73;;;15.00;27.90;;;;;;4979902;28;20450;-78
2022/03/08 11:15:24;;;;;;;6.10;5.80;;;16.00;28.00;;;;;;4983646;28;20432;-79
2022/03/08 11:17:52;;;;;;;6.67;6.23;;;16.80;27.70;;;;;;4963926;28;20959;-80
2022/03/08 11:20:20;;;;;;;5.97;5.67;;;17.20;27.90;;;;;;4982999;28;20409;-81
2022/03/08 11:22:48;;;;;;;6.60;6.20;;;17.10;27.60;;;;;;4981915;28;20987;-78
2022/03/08 11:25:16;;;;;;;5.27;4.93;;;16.90;27.30;;;;;;4984592;28;20467;-80
2022/03/08 11:27:44;;;;;;;5.63;5.43;;;16.00;27.00;;;;;;4982241;28;20468;-78
2022/03/08 11:30:51;;;;;;;6.97;6.50;;;16.50;27.40;;;;;;5071193;23;20559;-86
2022/03/08 11:34:12;;;;;;;5.63;5.33;;;19.50;28.60;;;;;;4991162;28;20439;-86
2022/03/08 11:44:20;;;;;;;;;;;;;;;;;;;;;
2022/03/08 11:58:13;;;;;;;6.80;6.47;;;19.40;26.60;;;;;;4859588;29;20462;-83
2022/03/08 12:01:16;;;;;;;5.90;5.60;;;19.20;27.00;;;;;;4889247;29;20521;-87
2022/03/08 12:09:13;;;;;;;6.07;5.73;;;18.40;26.50;;;;;;4943928;28;20478;-85
2022/03/08 12:11:45;;;;;;;6.27;6.00;;;18.60;26.60;;;;;;4938367;29;20431;-85
2022/03/08 12:14:21;;;;;;;6.10;5.87;;;18.30;26.60;;;;;;4939887;29;20587;-85
2022/03/08 12:17:21;;;;;;;5.50;5.30;;;19.20;27.10;;;;;;4911277;29;20471;-85
2022/03/08 12:19:54;;;;;;;5.60;5.10;;;17.00;26.50;;;;;;4921312;29;20447;-87
2022/03/08 12:22:41;;;;;;;4.23;4.13;;;18.40;26.30;;;;;;4926129;29;20514;-86
2022/03/08 12:25:37;;;;;;;4.77;4.67;;;20.40;26.90;;;;;;4942177;29;20487;-85
2022/03/08 12:28:02;;;;;;;5.33;5.13;;;19.60;26.80;;;;;;4933532;29;20439;-78
2022/03/08 12:30:41;;;;;;;5.67;5.47;;;19.30;25.70;;;;;;4917907;29;20458;-87
2022/03/08 12:33:53;;;;;;;6.87;6.13;;;18.20;26.30;;;;;;4917193;29;20483;-86
2022/03/08 12:36:25;;;;;;;5.37;5.17;;;16.50;26.20;;;;;;4910850;29;20442;-86
2022/03/08 12:38:54;;;;;;;5.10;4.80;;;17.00;27.50;;;;;;4924203;29;20441;-90
2022/03/08 12:41:29;;;;;;;5.13;4.93;;;17.80;27.00;;;;;;4919650;29;20961;-88
2022/03/08 12:44:02;;;;;;;4.80;4.60;;;17.10;26.70;;;;;;4933018;29;20474;-90
2022/03/08 12:46:40;;;;;;;4.87;4.73;;;19.00;26.90;;;;;;4921488;29;20447;-87
2022/03/08 12:49:13;;;;;;;5.93;5.70;;;18.90;26.00;;;;;;4920891;29;20428;-85
2022/03/08 12:54:47;;;;;;;5.10;4.90;;;18.40;25.90;;;;;;4967130;29;20422;-83
2022/03/08 12:57:24;;;;;;;4.60;4.50;;;16.80;25.40;;;;;;4946530;28;20443;-86
2022/03/08 12:59:55;;;;;;;4.80;4.60;;;16.30;26.40;;;;;;4912834;29;20432;-88
2022/03/08 13:02:37;;;;;;;5.17;4.87;;;17.40;26.80;;;;;;4905316;29;21084;-89
2022/03/08 13:05:07;;;;;;;4.80;4.70;;;18.10;27.00;;;;;;4902274;29;20490;-88
2022/03/08 13:08:06;;;;;;;5.00;4.80;;;18.40;25.90;;;;;;4964253;28;20465;-81
2022/03/08 13:10:59;;;;;;;5.40;5.10;;;18.70;26.80;;;;;;4626772;28;10000199;-87
2022/03/08 13:13:48;;;;;;;4.60;4.30;;;19.10;25.70;;;;;;4941595;29;20426;-87
2022/03/08 13:16:21;;;;;;;5.67;5.37;;;19.70;25.50;;;;;;4949782;28;20792;-85
2022/03/08 13:19:19;;;;;;;4.70;4.50;;;19.90;25.60;;;;;;4957560;28;20444;-87
2022/03/08 13:21:57;;;;;;;4.87;4.70;;;18.90;25.70;;;;;;4961257;28;20422;-82
2022/03/08 13:24:28;;;;;;;8.10;5.10;;;20.10;26.50;;;;;;4980338;28;20469;-91
2022/03/08 13:27:03;;;;;;;6.87;6.53;;;19.40;25.30;;;;;;4946939;29;20453;-90
2022/03/08 13:29:32;;;;;;;5.53;5.13;;;19.20;25.40;;;;;;4946263;28;20808;-89
2022/03/08 13:32:00;;;;;;;6.90;5.40;;;18.80;26.70;;;;;;4960772;28;20437;-85
2022/03/08 13:34:26;;;;;;;5.05;4.85;;;19.30;25.80;;;;;;4620519;28;10000175;-81
2022/03/08 13:37:11;;;;;;;5.17;4.97;;;18.60;26.20;;;;;;4965405;28;20579;-88
2022/03/08 13:40:03;;;;;;;4.57;4.37;;;19.00;25.20;;;;;;4969083;29;20456;-91